Time;durP1;ratioP1;P1;durP2;ratioP2;P2;SDS_P1;SDS_P2;PMS_P1;PMS_P2;Temp;Humidity;BMP_temperature;BMP_pressure;BME280_temperature;BME280_humidity;BME280_pressure;Samples;Min_cycle;Max_cycle;Signal;HPM_P1;HPM_P2
2022/07/26 00:01:28;;;;;;;16.63;10.65;;;21.00;95.60;;;;;;5081218;28;20024;-80
2022/07/26 00:03:54;;;;;;;15.18;11.45;;;21.00;95.60;;;;;;5092434;28;20020;-81
2022/07/26 00:06:20;;;;;;;15.55;11.40;;;21.00;95.60;;;;;;5089685;28;20393;-80
2022/07/26 00:08:46;;;;;;;12.48;11.18;;;21.00;95.80;;;;;;5084843;28;20477;-81
2022/07/26 00:11:12;;;;;;;13.95;11.23;;;21.00;95.80;;;;;;5091894;28;20085;-81
2022/07/26 00:13:38;;;;;;;13.63;11.27;;;21.00;95.90;;;;;;5083741;28;20417;-81
2022/07/26 00:16:06;;;;;;;11.43;10.32;;;21.00;95.90;;;;;;5092521;28;20023;-82
2022/07/26 00:18:32;;;;;;;13.27;11.88;;;20.90;96.00;;;;;;5091175;28;20039;-83
2022/07/26 00:20:58;;;;;;;13.82;10.80;;;20.90;96.10;;;;;;5092591;28;20031;-82
2022/07/26 00:23:42;;;;;;;13.75;11.75;;;20.90;96.20;;;;;;5091067;27;20499;-81
2022/07/26 00:26:08;;;;;;;13.18;11.52;;;20.90;96.20;;;;;;5089278;28;20052;-81
2022/07/26 00:28:34;;;;;;;13.75;11.77;;;20.90;96.30;;;;;;5069758;28;20039;-79
2022/07/26 00:30:59;;;;;;;13.55;11.63;;;20.90;96.40;;;;;;5088889;28;20107;-80
2022/07/26 00:33:25;;;;;;;12.50;11.07;;;20.80;96.40;;;;;;5088691;28;20501;-79
2022/07/26 00:35:51;;;;;;;17.40;12.30;;;20.80;96.50;;;;;;5088707;28;20389;-80
2022/07/26 00:38:17;;;;;;;15.05;11.85;;;20.80;96.60;;;;;;5088463;28;20020;-80
2022/07/26 00:40:43;;;;;;;16.48;11.32;;;20.80;96.70;;;;;;5088696;28;20074;-80
2022/07/26 00:43:08;;;;;;;16.73;11.13;;;20.80;96.80;;;;;;5088724;28;20424;-79
2022/07/26 00:45:34;;;;;;;15.77;11.65;;;20.80;96.80;;;;;;5088370;28;20029;-80
2022/07/26 00:48:00;;;;;;;13.15;11.82;;;20.80;96.80;;;;;;5088643;28;20052;-80
2022/07/26 00:50:26;;;;;;;13.05;11.63;;;20.80;96.90;;;;;;5088373;28;20013;-80
2022/07/26 00:52:53;;;;;;;17.25;12.10;;;20.80;97.00;;;;;;5088584;28;20478;-79
2022/07/26 00:55:19;;;;;;;12.38;11.07;;;20.80;97.10;;;;;;5082360;28;20096;-80
2022/07/26 00:57:46;;;;;;;13.77;12.38;;;20.70;97.10;;;;;;5063634;28;20581;-80
2022/07/26 01:00:15;;;;;;;15.35;11.63;;;20.80;97.20;;;;;;5088531;28;20020;-81
2022/07/26 01:02:42;;;;;;;12.55;11.10;;;20.70;97.40;;;;;;5088357;28;20024;-80
2022/07/26 01:05:08;;;;;;;12.88;11.57;;;20.70;97.50;;;;;;5070173;28;20537;-81
2022/07/26 01:07:36;;;;;;;13.00;11.53;;;20.70;97.80;;;;;;5088303;28;20073;-80
2022/07/26 01:10:03;;;;;;;13.38;11.32;;;20.70;97.60;;;;;;5088159;28;20265;-81
2022/07/26 01:12:29;;;;;;;14.48;12.13;;;20.70;97.70;;;;;;5088047;28;20035;-80
2022/07/26 01:14:55;;;;;;;15.40;11.85;;;20.70;97.80;;;;;;5070400;28;20028;-81
2022/07/26 01:17:21;;;;;;;14.13;12.73;;;20.60;97.80;;;;;;5088695;28;20091;-80
2022/07/26 01:19:46;;;;;;;18.25;12.50;;;20.60;97.90;;;;;;5089463;28;20058;-80
2022/07/26 01:22:12;;;;;;;15.20;12.30;;;20.60;97.90;;;;;;5089761;28;20047;-80
2022/07/26 01:24:38;;;;;;;13.90;10.73;;;20.60;98.00;;;;;;5089903;28;20303;-80
2022/07/26 01:27:04;;;;;;;15.15;12.32;;;20.60;98.10;;;;;;5086760;28;20805;-80
2022/07/26 01:29:30;;;;;;;11.98;10.57;;;20.60;98.10;;;;;;5088197;28;20032;-80
2022/07/26 01:31:56;;;;;;;15.80;11.98;;;20.60;98.30;;;;;;5088152;28;20020;-80
2022/07/26 01:34:21;;;;;;;15.73;12.15;;;20.60;98.40;;;;;;5078280;28;20539;-79
2022/07/26 01:36:47;;;;;;;16.90;12.82;;;20.60;98.40;;;;;;5074663;28;20028;-81
2022/07/26 01:39:13;;;;;;;14.98;12.02;;;20.50;98.50;;;;;;5074270;28;20024;-80
2022/07/26 01:41:39;;;;;;;16.83;12.57;;;20.50;98.60;;;;;;5074018;28;20401;-80
2022/07/26 01:44:06;;;;;;;13.52;12.13;;;20.50;98.70;;;;;;5073813;28;20351;-78
2022/07/26 01:46:32;;;;;;;16.33;13.07;;;20.50;98.70;;;;;;5073806;28;20025;-81
2022/07/26 01:49:00;;;;;;;18.25;12.88;;;20.50;98.80;;;;;;5073913;28;20485;-81
2022/07/26 01:51:26;;;;;;;14.93;13.10;;;20.50;98.80;;;;;;5074114;28;20021;-81
2022/07/26 01:53:52;;;;;;;19.40;13.00;;;20.50;98.90;;;;;;5073862;28;20024;-81
2022/07/26 01:56:18;;;;;;;15.90;11.80;;;20.50;98.90;;;;;;5073891;28;20484;-80
2022/07/26 01:58:44;;;;;;;14.57;12.05;;;20.60;99.00;;;;;;5073727;28;20020;-81
2022/07/26 02:01:10;;;;;;;18.30;12.80;;;20.50;99.00;;;;;;5073638;28;20070;-80
2022/07/26 02:03:36;;;;;;;16.60;12.65;;;20.60;99.00;;;;;;5055477;28;20396;-81
2022/07/26 02:06:03;;;;;;;18.02;12.85;;;20.60;99.10;;;;;;5073636;28;20016;-80
2022/07/26 02:08:29;;;;;;;14.32;12.15;;;20.50;99.10;;;;;;5055542;28;20070;-80
2022/07/26 02:11:01;;;;;;;15.45;12.82;;;20.50;99.10;;;;;;5073555;28;20051;-80
2022/07/26 02:13:35;;;;;;;16.45;13.20;;;20.50;99.20;;;;;;5073820;28;20025;-81
2022/07/26 02:16:03;;;;;;;19.00;12.77;;;20.50;99.20;;;;;;5073786;28;20051;-80
2022/07/26 02:18:30;;;;;;;17.48;12.70;;;20.50;99.20;;;;;;5073394;28;20726;-80
2022/07/26 02:20:57;;;;;;;14.73;12.32;;;20.50;99.30;;;;;;5055503;28;20025;-80
2022/07/26 02:23:24;;;;;;;17.42;12.75;;;20.50;99.30;;;;;;5073141;28;20048;-80
2022/07/26 02:25:51;;;;;;;18.83;13.02;;;20.50;99.30;;;;;;5073346;28;20125;-80
2022/07/26 02:28:17;;;;;;;15.63;13.05;;;20.50;99.30;;;;;;5072956;28;20025;-80
2022/07/26 02:30:44;;;;;;;17.08;12.93;;;20.60;99.30;;;;;;5073230;28;20024;-80
2022/07/26 02:33:10;;;;;;;16.38;14.10;;;20.60;99.30;;;;;;5073267;28;20021;-80
2022/07/26 02:35:36;;;;;;;21.38;13.68;;;20.60;99.40;;;;;;5073007;28;20096;-80
2022/07/26 02:38:04;;;;;;;15.68;13.80;;;20.70;99.20;;;;;;5073283;28;20020;-80
2022/07/26 02:40:30;;;;;;;14.20;12.20;;;20.70;99.10;;;;;;5069734;28;20106;-80
2022/07/26 02:42:56;;;;;;;13.80;11.32;;;20.80;99.10;;;;;;5073009;28;20032;-80
2022/07/26 02:45:22;;;;;;;15.57;13.93;;;20.90;99.00;;;;;;5071833;28;20821;-81
2022/07/26 02:47:49;;;;;;;14.40;12.93;;;20.90;98.80;;;;;;5055130;28;20024;-80
2022/07/26 02:50:17;;;;;;;20.60;13.05;;;20.90;98.80;;;;;;5072825;28;20020;-81
2022/07/26 02:52:45;;;;;;;16.77;12.00;;;21.10;98.70;;;;;;5054974;28;20050;-82
2022/07/26 02:55:11;;;;;;;18.88;12.73;;;21.10;98.50;;;;;;5072045;28;20020;-82
2022/07/26 02:57:37;;;;;;;18.38;12.90;;;21.30;98.30;;;;;;5072739;28;20040;-82
2022/07/26 03:00:04;;;;;;;15.95;13.15;;;21.40;98.00;;;;;;5072698;28;20056;-81
2022/07/26 03:02:29;;;;;;;17.93;12.97;;;21.50;97.70;;;;;;5057191;28;20064;-81
2022/07/26 03:04:55;;;;;;;15.20;12.82;;;21.60;97.40;;;;;;5072630;28;20052;-82
2022/07/26 03:07:21;;;;;;;15.35;11.77;;;21.70;97.10;;;;;;5072643;28;20021;-81
2022/07/26 03:09:47;;;;;;;17.10;13.38;;;21.80;96.90;;;;;;5072500;28;20054;-81
2022/07/26 03:12:13;;;;;;;20.17;12.50;;;21.80;96.50;;;;;;5072419;28;20032;-81
2022/07/26 03:14:38;;;;;;;16.85;12.55;;;21.80;96.50;;;;;;5072576;28;20025;-81
2022/07/26 03:17:04;;;;;;;18.52;11.75;;;21.90;96.40;;;;;;5072223;28;20185;-81
2022/07/26 03:19:30;;;;;;;19.20;12.63;;;21.90;96.40;;;;;;5072267;28;20385;-80
2022/07/26 03:21:56;;;;;;;16.67;12.85;;;22.00;96.20;;;;;;5071846;28;20041;-81
2022/07/26 03:24:22;;;;;;;13.95;12.55;;;22.00;96.00;;;;;;5071726;28;20385;-80
2022/07/26 03:26:48;;;;;;;14.85;13.23;;;22.10;95.90;;;;;;5071641;28;20099;-82
2022/07/26 03:29:13;;;;;;;18.55;13.73;;;22.20;95.80;;;;;;5087466;28;20074;-81
2022/07/26 03:31:39;;;;;;;15.30;12.90;;;22.20;95.70;;;;;;5072134;28;20025;-80
2022/07/26 03:34:05;;;;;;;13.90;11.82;;;22.20;95.50;;;;;;5054464;28;20020;-80
2022/07/26 03:36:31;;;;;;;14.20;12.30;;;22.30;95.50;;;;;;5072384;28;20050;-80
2022/07/26 03:38:57;;;;;;;13.80;12.23;;;22.40;95.40;;;;;;5071817;28;20081;-81
2022/07/26 03:41:23;;;;;;;17.50;11.93;;;22.50;95.20;;;;;;5071895;28;20412;-80
2022/07/26 03:43:48;;;;;;;14.73;13.05;;;22.50;95.00;;;;;;5071583;28;20024;-81
2022/07/26 03:46:14;;;;;;;13.73;12.15;;;22.60;94.70;;;;;;5071799;28;20021;-80
2022/07/26 03:48:40;;;;;;;17.95;13.18;;;22.70;94.50;;;;;;5071654;28;20032;-80
2022/07/26 03:51:06;;;;;;;16.08;11.82;;;22.80;94.20;;;;;;5071995;28;20019;-80
2022/07/26 03:53:33;;;;;;;16.98;12.25;;;22.80;94.00;;;;;;5071732;28;20036;-81
2022/07/26 03:58:43;;;;;;;15.35;12.13;;;22.90;93.70;;;;;;5071910;28;20366;-81
2022/07/26 04:01:09;;;;;;;14.10;12.57;;;23.00;93.70;;;;;;5071645;28;20021;-81
2022/07/26 04:03:35;;;;;;;14.95;11.20;;;23.00;93.50;;;;;;5071639;28;20128;-80
2022/07/26 04:06:01;;;;;;;16.10;11.73;;;23.10;93.40;;;;;;5071573;28;20025;-81
2022/07/26 04:08:27;;;;;;;17.40;12.40;;;23.20;93.10;;;;;;5071600;28;20020;-81
2022/07/26 04:10:52;;;;;;;13.25;11.02;;;23.30;93.00;;;;;;5071759;28;20397;-80
2022/07/26 04:13:19;;;;;;;12.27;10.63;;;23.40;92.80;;;;;;5071459;28;20032;-81
2022/07/26 04:15:45;;;;;;;13.60;12.13;;;23.50;92.60;;;;;;5071592;28;20444;-80
2022/07/26 04:18:13;;;;;;;15.37;11.57;;;23.50;92.30;;;;;;5071159;28;20470;-81
2022/07/26 04:20:39;;;;;;;15.13;11.52;;;23.50;92.20;;;;;;5071571;28;20260;-81
2022/07/26 04:23:05;;;;;;;11.70;10.57;;;23.60;91.90;;;;;;5055073;28;20140;-81
2022/07/26 04:25:33;;;;;;;13.48;12.07;;;23.70;91.70;;;;;;5072043;28;20482;-82
2022/07/26 04:27:59;;;;;;;13.00;11.23;;;23.70;91.40;;;;;;5071722;28;20127;-82
2022/07/26 04:30:25;;;;;;;14.30;12.23;;;23.70;91.50;;;;;;5071471;28;20097;-82
2022/07/26 04:32:51;;;;;;;13.52;11.43;;;23.70;91.40;;;;;;5071315;28;20038;-80
2022/07/26 04:35:16;;;;;;;16.52;11.30;;;23.70;91.40;;;;;;5053001;28;20489;-81
2022/07/26 04:37:44;;;;;;;13.13;11.82;;;23.80;91.30;;;;;;5071381;28;20071;-80
2022/07/26 04:40:10;;;;;;;;;;;23.90;91.20;;;;;;5071643;28;20020;-79
2022/07/26 04:42:39;;;;;;;12.88;10.52;;;24.00;91.20;;;;;;5071060;28;20288;-83
2022/07/26 04:45:06;;;;;;;13.55;11.93;;;24.00;90.90;;;;;;5052908;28;20085;-80
2022/07/26 04:47:31;;;;;;;13.20;11.15;;;24.10;90.80;;;;;;5071096;28;20110;-81
2022/07/26 04:49:57;;;;;;;12.43;11.13;;;24.20;90.50;;;;;;5069869;28;20434;-80
2022/07/26 04:52:23;;;;;;;13.35;11.95;;;24.20;90.40;;;;;;5050335;28;20037;-81
2022/07/26 04:54:49;;;;;;;21.10;11.50;;;24.30;89.90;;;;;;5070105;28;20048;-80
2022/07/26 04:57:15;;;;;;;17.10;11.98;;;24.30;89.70;;;;;;5070830;28;20113;-81
2022/07/26 04:59:41;;;;;;;13.02;11.73;;;24.30;90.10;;;;;;5071152;28;20095;-80
2022/07/26 05:02:06;;;;;;;15.02;10.57;;;24.40;89.80;;;;;;5070825;28;20025;-81
2022/07/26 05:04:32;;;;;;;13.23;10.65;;;24.50;89.10;;;;;;5071050;28;20477;-83
2022/07/26 05:07:01;;;;;;;12.93;11.40;;;24.70;88.20;;;;;;5070948;28;20020;-80
2022/07/26 05:09:29;;;;;;;12.18;10.00;;;25.20;86.30;;;;;;5072385;28;20020;-82
2022/07/26 05:11:56;;;;;;;11.50;10.40;;;26.10;84.50;;;;;;5074657;28;20029;-80
2022/07/26 05:14:21;;;;;;;14.73;10.95;;;26.80;80.30;;;;;;5056529;28;20020;-82
2022/07/26 05:16:47;;;;;;;11.48;10.35;;;27.60;77.50;;;;;;5074854;28;20025;-81
2022/07/26 05:19:14;;;;;;;15.02;11.38;;;28.30;74.70;;;;;;5074362;28;20086;-82
2022/07/26 05:21:40;;;;;;;11.13;9.90;;;28.90;72.60;;;;;;5056151;28;20127;-81
2022/07/26 05:24:06;;;;;;;10.63;9.52;;;29.60;69.80;;;;;;5074459;28;20103;-83
2022/07/26 05:26:32;;;;;;;16.08;10.95;;;30.00;67.30;;;;;;5074459;28;20032;-82
2022/07/26 05:28:58;;;;;;;12.10;10.60;;;30.00;66.40;;;;;;5074591;28;20107;-81
2022/07/26 05:31:24;;;;;;;9.75;8.65;;;30.10;66.10;;;;;;5056220;28;20111;-82
2022/07/26 05:33:50;;;;;;;16.70;10.47;;;30.30;65.70;;;;;;5056253;28;20388;-82
2022/07/26 05:36:16;;;;;;;13.43;10.77;;;30.90;64.70;;;;;;5074726;28;20028;-82
2022/07/26 05:38:42;;;;;;;12.38;11.18;;;31.10;63.50;;;;;;5056838;28;20120;-81
2022/07/26 05:41:08;;;;;;;14.07;10.70;;;31.70;62.00;;;;;;5090362;28;20455;-80
2022/07/26 05:43:34;;;;;;;17.57;10.90;;;31.80;61.10;;;;;;5074109;28;20393;-81
2022/07/26 05:46:00;;;;;;;11.07;10.00;;;31.80;61.30;;;;;;5069469;28;20016;-82
2022/07/26 05:48:26;;;;;;;11.37;10.13;;;32.40;60.00;;;;;;5073865;28;20056;-81
2022/07/26 05:50:52;;;;;;;11.67;10.47;;;;;;;;;;5073611;28;20021;-81
2022/07/26 05:53:18;;;;;;;13.20;10.93;;;33.40;56.50;;;;;;5073669;28;20039;-83
2022/07/26 05:55:44;;;;;;;14.23;10.30;;;33.80;56.30;;;;;;5073915;28;20428;-82
2022/07/26 05:58:10;;;;;;;12.37;10.93;;;34.20;55.50;;;;;;5074281;28;20104;-82
2022/07/26 06:00:35;;;;;;;12.03;10.77;;;34.50;54.50;;;;;;5073770;28;20489;-83
2022/07/26 06:05:47;;;;;;;10.80;9.70;;;34.70;53.50;;;;;;5073639;28;20051;-81
2022/07/26 06:08:13;;;;;;;11.68;10.50;;;35.10;52.70;;;;;;5073713;28;20067;-80
2022/07/26 06:10:39;;;;;;;11.73;9.93;;;35.90;51.40;;;;;;5074042;28;20059;-81
2022/07/26 06:13:05;;;;;;;11.80;10.57;;;36.60;50.20;;;;;;5073543;28;20625;-83
2022/07/26 06:15:30;;;;;;;11.70;10.57;;;37.50;49.00;;;;;;5073626;28;20293;-83
2022/07/26 06:17:56;;;;;;;10.63;9.43;;;38.00;47.60;;;;;;5073054;28;20039;-81
2022/07/26 06:20:22;;;;;;;12.80;10.17;;;38.70;46.50;;;;;;5072951;28;20020;-82
2022/07/26 06:22:50;;;;;;;12.10;10.80;;;38.90;46.00;;;;;;5073260;28;20288;-83
2022/07/26 06:25:16;;;;;;;13.82;9.40;;;39.10;45.30;;;;;;5073628;28;20362;-82
2022/07/26 06:27:42;;;;;;;12.07;10.85;;;39.60;44.40;;;;;;5055362;28;20094;-83
2022/07/26 06:30:09;;;;;;;13.30;11.90;;;39.30;44.10;;;;;;5073188;28;20081;-81
2022/07/26 06:32:35;;;;;;;9.93;9.00;;;39.10;44.40;;;;;;5054915;28;20039;-81
2022/07/26 06:35:01;;;;;;;10.02;9.10;;;39.20;43.40;;;;;;5073307;28;20029;-81
2022/07/26 06:37:26;;;;;;;13.77;8.98;;;39.40;43.50;;;;;;5072929;28;20025;-81
2022/07/26 06:39:52;;;;;;;9.23;8.32;;;39.70;43.10;;;;;;5073236;28;20031;-83
2022/07/26 06:42:18;;;;;;;14.77;10.68;;;;;;;;;;5054869;28;20043;-82
2022/07/26 06:44:44;;;;;;;12.98;10.57;;;;;;;;;;5073147;28;20460;-86
2022/07/26 06:47:10;;;;;;;13.70;11.27;;;;;;;;;;5072879;28;20024;-83
2022/07/26 06:49:37;;;;;;;9.05;8.25;;;;;;;;;;5075610;28;20024;-83
2022/07/26 06:52:03;;;;;;;12.75;8.15;;;;;;;;;;5072604;28;20059;-82
2022/07/26 06:54:29;;;;;;;;;;;;;;;;;;5073262;28;20020;-82
2022/07/26 06:56:55;;;;;;;8.85;7.45;;;;;;;;;;5071595;28;19921;-83
2022/07/26 06:59:21;;;;;;;8.65;7.82;;;;;;;;;;5075048;28;20020;-83
2022/07/26 07:01:47;;;;;;;;;;;;;;;;;;5055142;28;20048;-83
2022/07/26 07:04:13;;;;;;;9.32;8.43;;;;;;;;;;5072915;28;19997;-82
2022/07/26 07:06:39;;;;;;;9.93;8.40;;;;;;;;;;5055193;28;20119;-83
2022/07/26 07:09:05;;;;;;;10.68;8.43;;;;;;;;;;5072820;28;20097;-83
2022/07/26 07:11:31;;;;;;;;;;;;;;;;;;5074889;28;20024;-81
2022/07/26 07:13:57;;;;;;;9.40;8.40;;;;;;;;;;5081865;28;19904;-81
2022/07/26 07:16:23;;;;;;;;;;;40.30;42.50;;;;;;5086387;28;20008;-81
2022/07/26 07:18:50;;;;;;;8.05;7.25;;;41.10;41.20;;;;;;5078111;28;20269;-81
2022/07/26 07:21:16;;;;;;;8.68;7.70;;;41.70;38.90;;;;;;5077644;28;20032;-81
2022/07/26 07:23:41;;;;;;;;;;;41.90;38.30;;;;;;5075412;28;20020;-82
2022/07/26 07:26:07;;;;;;;7.88;7.15;;;42.30;39.40;;;;;;5072340;28;19905;-81
2022/07/26 07:28:37;;;;;;;7.10;6.60;;;42.60;38.00;;;;;;5054026;28;20082;-81
2022/07/26 07:31:03;;;;;;;7.78;7.03;;;43.00;37.20;;;;;;5053854;28;20472;-83
2022/07/26 07:33:29;;;;;;;9.48;7.80;;;43.50;37.10;;;;;;5054143;28;20470;-81
2022/07/26 07:35:55;;;;;;;7.72;6.95;;;43.70;36.00;;;;;;5072376;28;20102;-82
2022/07/26 07:38:21;;;;;;;;;;;43.70;35.90;;;;;;5072566;28;20028;-82
2022/07/26 07:40:47;;;;;;;14.73;11.23;;;44.00;37.20;;;;;;5071067;28;20066;-81
2022/07/26 07:43:12;;;;;;;;;;;42.60;36.50;;;;;;5072575;28;20054;-82
2022/07/26 07:45:38;;;;;;;8.80;7.78;;;41.80;38.00;;;;;;5072181;28;19905;-81
2022/07/26 07:48:05;;;;;;;;;;;41.00;38.50;;;;;;5071634;28;20070;-82
2022/07/26 07:50:31;;;;;;;8.02;7.22;;;41.00;39.30;;;;;;5073063;28;19911;-82
2022/07/26 07:52:57;;;;;;;8.48;7.70;;;41.80;38.60;;;;;;5070895;28;20041;-81
2022/07/26 07:55:24;;;;;;;7.90;7.10;;;43.00;37.50;;;;;;5056806;28;20055;-81
2022/07/26 07:57:50;;;;;;;8.75;8.02;;;43.40;36.50;;;;;;5054242;28;20799;-82
2022/07/26 08:00:18;;;;;;;8.13;7.43;;;43.00;36.40;;;;;;5072414;28;20025;-82
2022/07/26 08:02:45;;;;;;;7.70;7.03;;;43.00;36.20;;;;;;5071560;28;20124;-82
2022/07/26 08:05:12;;;;;;;7.97;6.97;;;43.30;36.10;;;;;;5071374;28;20048;-83
2022/07/26 08:07:37;;;;;;;15.40;8.32;;;44.20;36.10;;;;;;5071358;28;20025;-83
2022/07/26 08:10:04;;;;;;;8.00;7.10;;;44.30;35.20;;;;;;5070235;28;20019;-82
2022/07/26 08:12:30;;;;;;;8.77;6.93;;;44.20;35.20;;;;;;5071581;28;20375;-82
2022/07/26 08:14:56;;;;;;;8.20;7.40;;;44.00;35.40;;;;;;5071666;28;20019;-82
2022/07/26 08:17:21;;;;;;;8.45;7.65;;;44.50;35.10;;;;;;5053445;28;20048;-82
2022/07/26 08:19:47;;;;;;;8.45;7.45;;;45.20;34.40;;;;;;5053123;28;20116;-83
2022/07/26 08:22:13;;;;;;;8.63;7.50;;;45.40;34.10;;;;;;5071155;28;20463;-81
2022/07/26 08:24:39;;;;;;;7.13;6.50;;;;;;;;;;5071466;28;20042;-82
2022/07/26 08:27:06;;;;;;;10.02;7.20;;;45.90;33.10;;;;;;5070073;28;20035;-82
2022/07/26 08:29:32;;;;;;;8.20;7.22;;;44.40;34.30;;;;;;5071213;28;20447;-82
2022/07/26 08:31:58;;;;;;;8.20;7.45;;;44.10;34.70;;;;;;5071077;28;20033;-82
2022/07/26 08:34:23;;;;;;;7.80;7.05;;;43.20;35.20;;;;;;5070948;28;20108;-81
2022/07/26 08:36:49;;;;;;;11.43;7.53;;;42.70;35.70;;;;;;5070743;28;20486;-81
2022/07/26 08:39:15;;;;;;;;;;;42.80;35.80;;;;;;5053298;28;20453;-81
2022/07/26 08:41:42;;;;;;;7.93;7.13;;;43.20;36.50;;;;;;5071142;28;19909;-82
2022/07/26 08:44:10;;;;;;;8.05;7.25;;;43.50;34.90;;;;;;5053519;28;20025;-82
2022/07/26 08:46:39;;;;;;;8.45;7.28;;;44.10;34.70;;;;;;5056747;28;20059;-81
2022/07/26 08:49:09;;;;;;;8.63;7.85;;;44.70;34.30;;;;;;5074877;28;20021;-80
2022/07/26 08:51:41;;;;;;;7.63;7.00;;;44.50;34.60;;;;;;5056919;28;20162;-81
2022/07/26 08:54:09;;;;;;;8.55;7.15;;;43.50;34.80;;;;;;5074913;28;20029;-80
2022/07/26 08:56:40;;;;;;;8.32;7.63;;;43.50;34.80;;;;;;5074895;28;20048;-82
2022/07/26 08:59:14;;;;;;;9.73;7.13;;;43.90;34.60;;;;;;5056615;28;20504;-81
2022/07/26 09:01:56;;;;;;;6.38;5.88;;;44.20;34.20;;;;;;5074042;28;20028;-82
2022/07/26 09:04:36;;;;;;;8.55;7.20;;;43.60;34.50;;;;;;5056707;28;20021;-81
2022/07/26 09:07:04;;;;;;;8.43;7.60;;;43.80;34.80;;;;;;5074548;28;20032;-83
2022/07/26 09:09:35;;;;;;;8.80;6.65;;;44.40;34.60;;;;;;5074657;28;20032;-83
2022/07/26 09:12:23;;;;;;;9.40;6.72;;;44.80;33.70;;;;;;5072990;28;20037;-83
2022/07/26 09:14:49;;;;;;;8.88;7.15;;;44.60;34.00;;;;;;5074342;28;20013;-81
2022/07/26 09:17:17;;;;;;;9.13;8.20;;;44.70;33.90;;;;;;5073540;28;20440;-83
2022/07/26 09:19:44;;;;;;;8.48;7.63;;;45.10;33.70;;;;;;5074689;28;20363;-83
2022/07/26 09:22:16;;;;;;;8.23;7.40;;;44.10;34.60;;;;;;5074199;28;20059;-86
2022/07/26 09:24:45;;;;;;;8.98;8.07;;;43.90;34.40;;;;;;5057292;28;20128;-82
2022/07/26 09:27:20;;;;;;;9.68;8.07;;;44.20;34.50;;;;;;5074989;28;20027;-80
2022/07/26 09:29:51;;;;;;;7.95;7.25;;;43.90;34.40;;;;;;5056669;28;20552;-84
2022/07/26 09:32:26;;;;;;;10.38;8.38;;;44.30;34.20;;;;;;5073840;28;20107;-83
2022/07/26 09:34:55;;;;;;;11.43;7.97;;;44.80;34.00;;;;;;5075301;28;20075;-83
2022/07/26 09:37:42;;;;;;;8.18;7.38;;;44.90;33.90;;;;;;5056178;28;20439;-84
2022/07/26 09:40:12;;;;;;;9.52;8.40;;;44.50;34.20;;;;;;5074411;28;20028;-82
2022/07/26 09:42:51;;;;;;;11.40;7.82;;;43.40;34.80;;;;;;5056317;28;20021;-84
2022/07/26 09:45:17;;;;;;;10.93;9.77;;;41.60;36.40;;;;;;5076282;28;20460;-83
2022/07/26 09:47:43;;;;;;;11.90;9.88;;;38.40;38.10;;;;;;5074666;28;20050;-80
2022/07/26 09:50:27;;;;;;;10.55;9.45;;;38.10;40.10;;;;;;5074152;28;20024;-82
2022/07/26 09:53:09;;;;;;;12.57;10.57;;;36.80;42.70;;;;;;5055448;28;20032;-81
2022/07/26 09:55:55;;;;;;;9.70;8.90;;;35.80;43.80;;;;;;5073394;28;20027;-82
2022/07/26 09:58:23;;;;;;;11.02;9.93;;;34.70;44.60;;;;;;5073724;28;20021;-82
2022/07/26 10:00:49;;;;;;;13.60;10.90;;;33.80;46.80;;;;;;5073934;28;20028;-82
2022/07/26 10:03:15;;;;;;;11.57;10.45;;;33.20;48.20;;;;;;5055361;28;20020;-82
2022/07/26 10:05:41;;;;;;;11.43;9.35;;;34.00;47.80;;;;;;5054390;28;20036;-83
2022/07/26 10:08:07;;;;;;;10.30;9.03;;;35.70;45.90;;;;;;5073744;28;20027;-82
2022/07/26 10:10:37;;;;;;;9.27;8.57;;;37.30;43.40;;;;;;5073228;28;20032;-81
2022/07/26 10:13:05;;;;;;;9.07;8.38;;;38.50;40.70;;;;;;5073203;28;20042;-82
2022/07/26 10:15:43;;;;;;;11.90;9.05;;;39.50;40.40;;;;;;5073573;28;20028;-82
2022/07/26 10:18:37;;;;;;;8.73;8.02;;;40.10;39.30;;;;;;5072979;28;20031;-83
2022/07/26 10:21:23;;;;;;;9.07;8.27;;;40.60;39.00;;;;;;5072515;28;20021;-82
2022/07/26 10:23:51;;;;;;;9.93;8.70;;;41.10;37.80;;;;;;5073205;28;20116;-81
2022/07/26 10:26:37;;;;;;;10.27;8.35;;;41.20;38.00;;;;;;5072993;28;20050;-82
2022/07/26 10:29:15;;;;;;;9.93;8.18;;;41.90;37.50;;;;;;5085978;28;20081;-83
2022/07/26 10:31:46;;;;;;;10.85;8.43;;;42.00;37.00;;;;;;5073164;28;20461;-84
2022/07/26 10:34:30;;;;;;;10.77;7.75;;;42.20;36.60;;;;;;5073437;28;20424;-83
2022/07/26 10:37:01;;;;;;;9.80;8.25;;;41.50;36.80;;;;;;5072775;28;20025;-83
2022/07/26 10:39:27;;;;;;;9.55;8.70;;;40.40;37.40;;;;;;5054089;28;20032;-84
2022/07/26 10:41:57;;;;;;;12.07;8.10;;;38.70;38.80;;;;;;5072954;28;20021;-81
2022/07/26 10:44:24;;;;;;;9.60;8.73;;;37.70;40.50;;;;;;5054814;28;20025;-82
2022/07/26 10:47:19;;;;;;;10.88;9.73;;;37.00;41.00;;;;;;5072935;28;20116;-81
2022/07/26 10:49:58;;;;;;;10.95;9.38;;;36.20;42.00;;;;;;5072473;28;20120;-82
2022/07/26 10:52:31;;;;;;;12.25;9.88;;;35.50;43.60;;;;;;5072659;28;20445;-83
2022/07/26 10:55:00;;;;;;;11.10;10.10;;;35.00;44.40;;;;;;5071862;28;20446;-81
2022/07/26 10:57:30;;;;;;;10.43;9.48;;;34.80;45.40;;;;;;5054594;28;20123;-83
2022/07/26 11:00:00;;;;;;;13.65;11.77;;;34.70;45.30;;;;;;5072731;28;20426;-81
2022/07/26 11:02:31;;;;;;;11.50;9.70;;;34.60;46.00;;;;;;5055042;28;20034;-85
2022/07/26 11:05:01;;;;;;;11.25;10.25;;;34.50;45.90;;;;;;5074224;28;20017;-82
2022/07/26 11:07:27;;;;;;;11.85;10.05;;;34.00;46.20;;;;;;5055621;28;20028;-82
2022/07/26 11:09:58;;;;;;;12.88;10.02;;;33.60;46.60;;;;;;5072627;28;20020;-82
2022/07/26 11:12:23;;;;;;;11.25;9.73;;;33.30;47.50;;;;;;5052872;28;20040;-82
2022/07/26 11:14:54;;;;;;;12.80;10.33;;;33.20;47.40;;;;;;5072558;28;20024;-84
2022/07/26 11:17:29;;;;;;;13.75;10.07;;;32.90;47.60;;;;;;5054302;28;20032;-83
2022/07/26 11:19:56;;;;;;;11.65;10.57;;;32.70;47.80;;;;;;5072160;28;20119;-82
2022/07/26 11:22:29;;;;;;;;;;;32.50;47.90;;;;;;5055035;28;20702;-82
2022/07/26 11:24:55;;;;;;;12.05;10.85;;;32.50;47.50;;;;;;5072187;28;19915;-82
2022/07/26 11:27:21;;;;;;;11.80;10.60;;;;;;;;;;5071095;28;20486;-82
2022/07/26 11:29:47;;;;;;;12.90;11.60;;;32.40;48.60;;;;;;5072357;28;20025;-82
2022/07/26 11:32:22;;;;;;;11.87;10.30;;;32.20;48.40;;;;;;5072088;28;20028;-82
2022/07/26 11:35:00;;;;;;;12.68;10.88;;;32.10;48.10;;;;;;5072059;28;20253;-82
2022/07/26 11:37:27;;;;;;;11.55;10.55;;;31.90;48.20;;;;;;5072006;28;20393;-82
2022/07/26 11:39:53;;;;;;;13.15;10.57;;;31.70;48.90;;;;;;5071876;28;20032;-82
2022/07/26 11:42:20;;;;;;;10.40;9.32;;;31.70;49.10;;;;;;5072026;28;20021;-82
2022/07/26 11:44:48;;;;;;;12.18;10.73;;;31.70;49.30;;;;;;5052910;28;20139;-83
2022/07/26 11:47:20;;;;;;;15.48;11.80;;;31.50;50.10;;;;;;5054466;28;20032;-83
2022/07/26 11:49:47;;;;;;;14.07;12.02;;;31.40;50.60;;;;;;5054164;28;20024;-81
2022/07/26 11:52:13;;;;;;;12.73;10.73;;;31.40;50.60;;;;;;5072369;28;20607;-82
2022/07/26 11:54:47;;;;;;;12.57;11.45;;;31.30;50.80;;;;;;5071921;28;20039;-82
2022/07/26 11:57:14;;;;;;;12.85;10.93;;;31.30;50.70;;;;;;5054578;28;20110;-83
2022/07/26 11:59:42;;;;;;;12.35;10.68;;;31.10;51.60;;;;;;5070704;28;20028;-82
2022/07/26 12:02:08;;;;;;;14.88;12.63;;;31.00;51.50;;;;;;5071661;28;20024;-81
2022/07/26 12:04:39;;;;;;;14.93;11.85;;;30.90;52.40;;;;;;5071682;28;20104;-81
2022/07/26 12:07:10;;;;;;;15.23;12.35;;;30.80;51.80;;;;;;5053579;28;20492;-82
2022/07/26 12:09:38;;;;;;;13.10;11.68;;;30.70;51.80;;;;;;5053785;28;20031;-83
2022/07/26 12:12:05;;;;;;;15.80;11.77;;;;;;;;;;5071573;28;20028;-84
2022/07/26 12:14:35;;;;;;;13.52;10.98;;;30.50;52.00;;;;;;5071595;28;20027;-83
2022/07/26 12:17:18;;;;;;;12.82;11.52;;;30.50;53.20;;;;;;5070514;28;20024;-81
2022/07/26 12:19:44;;;;;;;12.18;11.07;;;30.50;52.20;;;;;;5071525;28;20021;-81
2022/07/26 12:22:13;;;;;;;17.02;12.05;;;30.60;52.50;;;;;;5071216;28;20489;-83
2022/07/26 12:24:41;;;;;;;18.05;12.23;;;30.60;52.80;;;;;;5071659;28;20016;-83
2022/07/26 12:27:29;;;;;;;14.50;12.27;;;30.70;53.10;;;;;;5070112;28;20063;-83
2022/07/26 12:30:01;;;;;;;13.95;12.55;;;30.70;53.60;;;;;;5047476;28;20075;-83
2022/07/26 12:32:35;;;;;;;15.38;13.10;;;30.60;54.20;;;;;;5071287;28;20036;-83
2022/07/26 12:35:03;;;;;;;16.00;12.82;;;30.60;53.90;;;;;;5074410;28;20028;-81
2022/07/26 12:37:33;;;;;;;14.98;13.27;;;30.50;54.00;;;;;;5072884;28;20027;-82
2022/07/26 12:40:07;;;;;;;17.02;12.65;;;30.50;53.80;;;;;;5074542;28;20473;-82
2022/07/26 12:42:39;;;;;;;13.50;12.20;;;30.40;54.20;;;;;;5071735;28;20033;-82
2022/07/26 12:45:07;;;;;;;13.73;12.38;;;30.50;54.20;;;;;;5071802;28;20025;-82
2022/07/26 12:47:34;;;;;;;13.95;12.45;;;30.50;54.00;;;;;;5072045;28;20105;-82
2022/07/26 12:50:02;;;;;;;;;;;30.50;53.90;;;;;;5072199;28;20028;-83